createdAt,value
2019-03-01T00:02:07.805Z,96915.28
2019-03-01T00:05:01.861Z,96912.94
2019-03-01T00:08:10.587Z,96921.20
2019-03-01T00:10:47.740Z,96907.00
2019-03-01T00:13:25.236Z,96912.64
2019-03-01T00:16:20.608Z,96908.17
2019-03-01T00:19:07.195Z,96915.52
2019-03-01T00:21:41.695Z,96912.84
2019-03-01T00:24:41.893Z,96914.84
2019-03-01T00:27:25.132Z,96912.31
2019-03-01T00:30:32.861Z,96919.49
2019-03-01T00:33:10.008Z,96916.97
2019-03-01T00:35:44.453Z,96922.20
2019-03-01T00:38:18.965Z,96924.23
2019-03-01T00:41:09.641Z,96928.47
2019-03-01T00:43:55.383Z,96914.95
2019-03-01T00:46:26.705Z,96921.28
2019-03-01T00:48:58.023Z,96922.14
2019-03-01T00:51:29.425Z,96929.55
2019-03-01T00:54:00.745Z,96918.47
2019-03-01T00:56:32.129Z,96931.55
2019-03-01T00:59:03.470Z,96926.61
2019-03-01T01:01:34.789Z,96934.02
2019-03-01T01:04:06.139Z,96931.13
2019-03-01T01:06:37.488Z,96927.72
2019-03-01T01:09:08.861Z,96930.80
2019-03-01T01:11:40.234Z,96925.46
2019-03-01T01:14:11.506Z,96936.45
2019-03-01T01:16:42.810Z,96930.63
2019-03-01T01:19:14.139Z,96937.84
2019-03-01T01:21:45.452Z,96935.18
2019-03-01T01:24:16.823Z,96939.80
2019-03-01T01:26:48.301Z,96942.32
2019-03-01T01:29:19.667Z,96935.27
2019-03-01T01:31:50.991Z,96941.50
2019-03-01T01:34:22.426Z,96943.75
2019-03-01T01:36:53.766Z,96941.70
2019-03-01T01:39:25.122Z,96940.52
2019-03-01T01:41:56.577Z,96948.09
2019-03-01T01:44:28.064Z,96944.67
2019-03-01T01:46:59.411Z,96947.27
2019-03-01T01:49:30.819Z,96949.77
2019-03-01T01:52:02.165Z,96953.34
2019-03-01T01:54:33.521Z,96957.90
2019-03-01T01:57:04.819Z,96963.73
2019-03-01T01:59:36.073Z,96963.03
2019-03-01T02:02:07.441Z,96974.23
2019-03-01T02:04:38.759Z,96968.56
2019-03-01T02:07:10.130Z,96979.05
2019-03-01T02:09:41.521Z,96972.56
2019-03-01T02:12:12.917Z,96977.55
2019-03-01T02:14:44.290Z,96970.42
2019-03-01T02:17:15.653Z,96964.48
2019-03-01T02:19:47.035Z,96973.84
2019-03-01T02:22:18.347Z,96969.25
2019-03-01T02:24:49.713Z,96971.63
2019-03-01T02:27:28.942Z,96975.13
2019-03-01T02:30:00.533Z,96977.11
2019-03-01T02:32:36.525Z,96983.49
2019-03-01T02:35:10.689Z,96977.55
2019-03-01T02:37:42.003Z,96981.03
2019-03-01T02:40:15.032Z,96975.11
2019-03-01T02:42:46.427Z,96985.73
2019-03-01T02:45:19.507Z,96987.88
2019-03-01T02:47:50.877Z,96991.30
2019-03-01T02:50:22.299Z,96989.80
2019-03-01T02:52:53.678Z,96996.14
2019-03-01T02:55:25.086Z,96996.47
2019-03-01T02:57:56.461Z,97004.08
2019-03-01T03:00:29.491Z,97001.64
2019-03-01T03:03:00.871Z,97002.71
2019-03-01T03:05:33.876Z,97003.74
2019-03-01T03:08:06.767Z,97005.48
2019-03-01T03:10:38.205Z,97009.45
2019-03-01T03:13:10.955Z,97007.52
2019-03-01T03:15:43.909Z,97003.97
2019-03-01T03:18:15.281Z,97009.95
2019-03-01T03:20:46.661Z,97007.34
2019-03-01T03:23:17.997Z,96998.87
2019-03-01T03:25:49.398Z,97003.79
2019-03-01T03:28:20.771Z,97002.56
2019-03-01T03:30:52.161Z,97000.34
2019-03-01T03:33:23.554Z,96995.47
2019-03-01T03:35:56.281Z,96995.59
2019-03-01T03:38:27.671Z,96995.02
2019-03-01T03:41:00.690Z,96994.19
2019-03-01T03:43:31.922Z,96991.83
2019-03-01T03:46:03.192Z,96993.78
2019-03-01T03:48:36.234Z,96998.59
2019-03-01T03:51:07.686Z,97000.09
2019-03-01T03:53:38.933Z,96995.14
2019-03-01T03:56:10.286Z,96994.75
2019-03-01T03:58:41.700Z,96999.09
2019-03-01T04:01:13.150Z,96999.09
2019-03-01T04:03:44.513Z,96999.73
2019-03-01T04:06:15.920Z,96990.30
2019-03-01T04:08:47.330Z,97000.77
2019-03-01T04:11:18.671Z,97000.21
2019-03-01T04:13:50.086Z,96998.99
2019-03-01T04:16:21.518Z,96998.67
2019-03-01T04:18:52.835Z,96995.38
2019-03-01T04:21:24.264Z,96997.45
2019-03-01T04:23:55.794Z,96992.17
2019-03-01T04:26:28.182Z,96992.80
2019-03-01T04:28:59.547Z,96986.46
2019-03-01T04:31:30.946Z,96987.56
2019-03-01T04:34:02.210Z,96986.84
2019-03-01T04:36:33.557Z,96990.98
2019-03-01T04:39:06.169Z,96990.17
2019-03-01T04:41:39.195Z,96985.86
2019-03-01T04:44:10.574Z,96989.11
2019-03-01T04:46:42.002Z,96992.73
2019-03-01T04:49:13.345Z,96992.48
2019-03-01T04:51:44.741Z,96997.61
2019-03-01T04:54:16.146Z,96995.75
2019-03-01T04:56:47.787Z,97000.90
2019-03-01T04:59:19.179Z,97002.44
2019-03-01T05:01:50.566Z,97007.88
2019-03-01T05:04:21.911Z,96999.50
2019-03-01T05:06:53.323Z,97005.91
2019-03-01T05:09:24.646Z,97006.08
2019-03-01T05:11:56.014Z,97001.83
2019-03-01T05:14:27.362Z,97006.44
2019-03-01T05:16:58.634Z,97010.03
2019-03-01T05:19:30.120Z,97011.83
2019-03-01T05:22:01.429Z,97010.74
2019-03-01T05:24:32.818Z,97014.84
2019-03-01T05:27:04.209Z,97019.54
2019-03-01T05:29:35.577Z,97025.03
2019-03-01T05:32:06.904Z,97027.33
2019-03-01T05:34:38.352Z,97022.80
2019-03-01T05:37:09.670Z,97024.16
2019-03-01T05:39:41.005Z,97023.15
2019-03-01T05:42:13.000Z,97027.97
2019-03-01T05:44:43.742Z,97030.23
2019-03-01T05:47:14.786Z,97044.22
2019-03-01T05:49:46.172Z,97043.22
2019-03-01T05:52:17.564Z,97049.86
2019-03-01T05:54:48.906Z,97063.43
2019-03-01T05:57:20.240Z,97061.16
2019-03-01T05:59:51.599Z,97067.33
2019-03-01T06:02:26.161Z,97063.11
2019-03-01T06:04:59.106Z,97062.75
2019-03-01T06:07:36.359Z,97069.28
2019-03-01T06:10:10.792Z,97070.96
2019-03-01T06:13:03.189Z,97076.84
2019-03-01T06:15:58.887Z,97081.12
2019-03-01T06:18:39.134Z,97089.37
2019-03-01T06:21:22.713Z,97085.41
2019-03-01T06:24:18.287Z,97087.29
2019-03-01T06:27:01.496Z,97094.49
2019-03-01T06:29:35.991Z,97101.71
2019-03-01T06:32:29.969Z,97098.66
2019-03-01T06:35:23.005Z,97095.22
2019-03-01T06:38:47.200Z,97097.59
2019-03-01T06:41:31.587Z,97094.62
2019-03-01T06:44:15.342Z,97105.23
2019-03-01T06:46:54.204Z,97100.61
2019-03-01T06:49:27.220Z,97100.29
2019-03-01T06:51:58.556Z,97098.48
2019-03-01T06:54:30.563Z,97101.83
2019-03-01T06:57:01.298Z,97107.83
2019-03-01T06:59:32.379Z,97104.02
2019-03-01T07:02:03.765Z,97111.73
2019-03-01T07:04:35.186Z,97112.27
2019-03-01T07:07:06.569Z,97114.16
2019-03-01T07:09:37.898Z,97116.77
2019-03-01T07:12:09.417Z,97118.64
2019-03-01T07:14:40.767Z,97114.32
2019-03-01T07:17:12.106Z,97115.44
2019-03-01T07:19:43.487Z,97122.31
2019-03-01T07:22:15.800Z,97122.44
2019-03-01T07:24:47.144Z,97124.15
2019-03-01T07:27:19.700Z,97122.22
2019-03-01T07:29:51.588Z,97117.42
2019-03-01T07:32:22.974Z,97133.79
2019-03-01T07:34:54.413Z,97126.61
2019-03-01T07:37:25.736Z,97130.34
2019-03-01T07:39:59.120Z,97130.88
2019-03-01T07:45:35.700Z,97144.48
2019-03-01T07:48:07.048Z,97144.39
2019-03-01T07:50:38.236Z,97158.03
2019-03-01T07:53:09.440Z,97149.27
2019-03-01T07:55:40.651Z,97146.61
2019-03-01T07:58:11.884Z,97151.75
2019-03-01T08:00:43.295Z,97153.64
2019-03-01T08:03:15.158Z,97152.48
2019-03-01T08:05:47.556Z,97166.39
2019-03-01T08:08:18.929Z,97163.28
2019-03-01T08:10:53.500Z,97166.18
2019-03-01T08:13:23.378Z,97175.23
2019-03-01T08:15:54.782Z,97173.81
2019-03-01T08:18:26.258Z,97177.32
2019-03-01T08:20:57.797Z,97172.55
2019-03-01T08:23:31.751Z,97180.35
2019-03-01T08:26:03.522Z,97188.59
2019-03-01T08:28:35.193Z,97182.77
2019-03-01T08:31:06.578Z,97179.77
2019-03-01T08:33:42.349Z,97182.41
2019-03-01T08:36:10.981Z,97181.94
2019-03-01T08:38:42.247Z,97185.44
2019-03-01T08:41:13.667Z,97182.13
2019-03-01T08:43:48.112Z,97191.16
2019-03-01T08:46:18.065Z,97190.66
2019-03-01T08:48:49.439Z,97202.31
2019-03-01T08:51:22.650Z,97202.48
2019-03-01T08:53:53.781Z,97193.77
2019-03-01T08:56:26.392Z,97207.00
2019-03-01T08:58:59.204Z,97215.27
2019-03-01T09:01:31.780Z,97226.02
2019-03-01T09:04:14.114Z,97221.45
2019-03-01T09:06:43.442Z,97227.81
2019-03-01T09:09:17.548Z,97223.94
2019-03-01T09:11:47.953Z,97224.02
2019-03-01T09:14:19.295Z,97220.53
2019-03-01T09:16:50.660Z,97218.17
2019-03-01T09:19:22.385Z,97207.52
2019-03-01T09:21:54.976Z,97222.06
2019-03-01T09:24:29.162Z,97223.04
2019-03-01T09:26:59.330Z,97215.83
2019-03-01T09:29:30.550Z,97213.81
2019-03-01T09:32:01.773Z,97207.97
2019-03-01T09:34:33.088Z,97212.41
2019-03-01T09:37:04.469Z,97218.92
2019-03-01T09:39:35.698Z,97231.19
2019-03-01T09:42:06.885Z,97228.56
2019-03-01T09:44:39.299Z,97234.16
2019-03-01T09:47:10.761Z,97236.84
2019-03-01T09:49:42.071Z,97225.35
2019-03-01T09:52:13.317Z,97236.86
2019-03-01T09:54:44.899Z,97229.03
2019-03-01T09:57:16.509Z,97239.69
2019-03-01T09:59:47.366Z,97245.94
2019-03-01T10:02:18.458Z,97244.20
2019-03-01T10:04:49.960Z,97237.95
2019-03-01T10:07:21.223Z,97242.30
2019-03-01T10:09:52.375Z,97237.69
2019-03-01T10:12:23.743Z,97237.39
2019-03-01T10:14:54.986Z,97247.16
2019-03-01T10:17:26.316Z,97256.50
2019-03-01T10:19:57.622Z,97250.84
2019-03-01T10:22:39.243Z,97263.63
2019-03-01T10:25:13.236Z,97253.14
2019-03-01T10:27:44.454Z,97260.82
2019-03-01T10:30:21.097Z,97253.16
2019-03-01T10:32:52.358Z,97269.39
2019-03-01T10:35:23.690Z,97256.04
2019-03-01T10:37:54.982Z,97258.63
2019-03-01T10:40:27.473Z,97266.78
2019-03-01T10:42:58.692Z,97279.22
2019-03-01T10:45:30.707Z,97291.19
2019-03-01T10:48:01.888Z,97290.19
2019-03-01T10:50:33.229Z,97285.41
2019-03-01T10:53:04.603Z,97293.04
2019-03-01T10:55:36.055Z,97295.48
2019-03-01T10:58:07.304Z,97290.56
2019-03-01T11:00:38.662Z,97299.27
2019-03-01T11:03:10.024Z,97299.38
2019-03-01T11:05:41.295Z,97311.26
2019-03-01T11:08:12.558Z,97307.00
2019-03-01T11:10:43.841Z,97310.50
2019-03-01T11:13:18.300Z,97311.23
2019-03-01T11:15:49.621Z,97308.66
2019-03-01T11:18:20.939Z,97324.02
2019-03-01T11:20:52.260Z,97315.09
2019-03-01T11:23:23.562Z,97312.20
2019-03-01T11:25:54.847Z,97311.45
2019-03-01T11:28:26.124Z,97307.76
2019-03-01T11:30:57.850Z,97314.14
2019-03-01T11:33:29.084Z,97325.98
2019-03-01T11:36:00.351Z,97333.01
2019-03-01T11:38:31.635Z,97324.80
2019-03-01T11:41:04.313Z,97349.21
2019-03-01T11:43:36.607Z,97346.26
2019-03-01T11:46:07.904Z,97346.83
2019-03-01T11:48:39.176Z,97352.53
2019-03-01T11:51:10.493Z,97352.95
2019-03-01T11:53:42.185Z,97353.67
2019-03-01T11:56:13.693Z,97375.15
2019-03-01T11:58:44.902Z,97365.64
2019-03-01T12:01:17.394Z,97362.82
2019-03-01T12:03:49.209Z,97362.20
2019-03-01T12:06:20.340Z,97362.97
2019-03-01T12:08:51.571Z,97371.02
2019-03-01T12:11:22.811Z,97370.55
2019-03-01T12:13:54.197Z,97370.33
2019-03-01T12:16:25.466Z,97372.09
2019-03-01T12:18:56.674Z,97382.31
2019-03-01T12:21:27.884Z,97380.38
2019-03-01T12:23:59.209Z,97390.61
2019-03-01T12:26:30.457Z,97391.47
2019-03-01T12:29:01.661Z,97392.06
2019-03-01T12:31:32.919Z,97396.69
2019-03-01T12:34:04.173Z,97399.04
2019-03-01T12:36:35.513Z,97418.01
2019-03-01T12:39:07.498Z,97409.64
2019-03-01T12:41:40.186Z,97412.10
2019-03-01T12:44:11.439Z,97423.14
2019-03-01T12:46:43.774Z,97429.80
2019-03-01T12:49:14.981Z,97428.47
2019-03-01T12:51:46.225Z,97429.26
2019-03-01T12:54:17.708Z,97440.30
2019-03-01T12:56:49.009Z,97439.08
2019-03-01T12:59:20.280Z,97436.23
2019-03-01T13:01:51.495Z,97446.05
2019-03-01T13:04:22.783Z,97446.98
2019-03-01T13:06:54.085Z,97454.23
2019-03-01T13:09:26.472Z,97458.20
2019-03-01T13:11:58.006Z,97459.23
2019-03-01T13:14:29.360Z,97460.14
2019-03-01T13:17:01.767Z,97457.08
2019-03-01T13:19:34.040Z,97462.48
2019-03-01T13:22:05.436Z,97454.13
2019-03-01T13:24:36.829Z,97463.22
2019-03-01T13:27:08.235Z,97457.70
2019-03-01T13:29:39.501Z,97459.52
2019-03-01T13:32:10.720Z,97460.66
2019-03-01T13:34:41.979Z,97458.73
2019-03-01T13:37:19.290Z,97467.78
2019-03-01T13:39:48.603Z,97473.35
2019-03-01T13:42:20.217Z,97478.25
2019-03-01T13:44:51.432Z,97473.44
2019-03-01T13:47:22.659Z,97478.66
2019-03-01T13:49:53.993Z,97485.06
2019-03-01T13:52:26.740Z,97495.53
2019-03-01T13:54:59.222Z,97482.86
2019-03-01T13:57:30.581Z,97489.59
2019-03-01T14:00:03.200Z,97478.37
2019-03-01T14:02:35.720Z,97490.42
2019-03-01T14:05:08.834Z,97510.72
2019-03-01T14:07:40.150Z,97501.95
2019-03-01T14:10:13.922Z,97508.48
2019-03-01T14:12:45.223Z,97507.15
2019-03-01T14:15:17.958Z,97512.58
2019-03-01T14:17:49.243Z,97518.40
2019-03-01T14:20:22.622Z,97505.29
2019-03-01T14:22:54.079Z,97527.73
2019-03-01T14:25:25.489Z,97530.55
2019-03-01T14:27:56.886Z,97531.23
2019-03-01T14:30:30.277Z,97543.62
2019-03-01T14:33:01.516Z,97548.01
2019-03-01T14:35:32.953Z,97545.84
2019-03-01T14:38:04.679Z,97546.50
2019-03-01T14:40:36.085Z,97554.59
2019-03-01T14:43:07.547Z,97564.95
2019-03-01T14:45:41.729Z,97561.70
2019-03-01T14:48:12.111Z,97571.42
2019-03-01T14:50:43.518Z,97567.54
2019-03-01T14:53:14.957Z,97573.53
2019-03-01T14:55:58.955Z,97582.57
2019-03-01T14:58:37.413Z,97578.91
2019-03-01T15:01:27.703Z,97584.58
2019-03-01T15:03:59.262Z,97591.55
2019-03-01T15:06:30.711Z,97598.38
2019-03-01T15:09:01.980Z,97605.48
2019-03-01T15:11:34.894Z,97608.08
2019-03-01T15:14:12.078Z,97613.55
2019-03-01T15:16:43.370Z,97622.73
2019-03-01T15:19:12.506Z,97623.41
2019-03-01T15:21:43.979Z,97625.97
2019-03-01T15:24:15.407Z,97639.77
2019-03-01T15:26:46.814Z,97639.77
2019-03-01T15:29:18.254Z,97648.87
2019-03-01T15:31:51.099Z,97641.00
2019-03-01T15:34:24.079Z,97633.48
2019-03-01T15:36:56.803Z,97650.03
2019-03-01T15:39:28.246Z,97651.53
2019-03-01T15:41:59.629Z,97658.86
2019-03-01T15:44:31.146Z,97662.73
2019-03-01T15:47:02.548Z,97664.48
2019-03-01T15:49:34.027Z,97660.92
2019-03-01T15:52:05.426Z,97677.97
2019-03-01T15:54:36.832Z,97685.98
2019-03-01T15:57:08.405Z,97677.64
2019-03-01T15:59:39.832Z,97680.89
2019-03-01T16:02:11.210Z,97687.05
2019-03-01T16:04:42.587Z,97689.66
2019-03-01T16:07:14.064Z,97692.59
2019-03-01T16:09:45.485Z,97693.61
2019-03-01T16:12:16.945Z,97693.98
2019-03-01T16:14:48.385Z,97706.81
2019-03-01T16:17:24.350Z,97712.91
2019-03-01T16:19:54.135Z,97710.00
2019-03-01T16:22:25.696Z,97716.30
2019-03-01T16:24:57.165Z,97726.27
2019-03-01T16:27:28.603Z,97730.84
2019-03-01T16:30:00.017Z,97733.11
2019-03-01T16:32:31.468Z,97734.54
2019-03-01T16:35:02.911Z,97740.56
2019-03-01T16:37:34.325Z,97741.50
2019-03-01T16:40:11.341Z,97741.17
2019-03-01T16:42:42.946Z,97748.52
2019-03-01T16:45:17.750Z,97746.42
2019-03-01T16:47:48.707Z,97737.97
2019-03-01T16:50:21.288Z,97745.34
2019-03-01T16:52:52.683Z,97740.61
2019-03-01T16:55:28.841Z,97748.69
2019-03-01T16:58:06.770Z,97747.31
2019-03-01T17:00:35.932Z,97747.06
2019-03-01T17:03:09.273Z,97748.56
2019-03-01T17:05:40.759Z,97740.17
2019-03-01T17:08:12.202Z,97744.73
2019-03-01T17:10:43.653Z,97739.16
2019-03-01T17:13:15.096Z,97747.14
2019-03-01T17:15:48.449Z,97750.54
2019-03-01T17:18:19.653Z,97752.67
2019-03-01T17:20:51.249Z,97758.76
2019-03-01T17:23:23.366Z,97751.42
2019-03-01T17:25:54.846Z,97757.23
2019-03-01T17:28:27.810Z,97757.87
2019-03-01T17:30:59.202Z,97757.98
2019-03-01T17:33:31.668Z,97761.33
2019-03-01T17:36:03.096Z,97765.05
2019-03-01T17:38:34.417Z,97772.27
2019-03-01T17:41:09.330Z,97779.13
2019-03-01T17:43:39.032Z,97781.17
2019-03-01T17:46:10.442Z,97785.64
2019-03-01T17:48:41.778Z,97792.11
2019-03-01T17:51:13.145Z,97790.95
2019-03-01T17:53:46.426Z,97788.89
2019-03-01T17:56:21.927Z,97788.05
2019-03-01T17:58:51.977Z,97799.30
2019-03-01T18:01:23.363Z,97801.82
2019-03-01T18:03:57.994Z,97804.60
2019-03-01T18:06:29.328Z,97811.63
2019-03-01T18:09:00.781Z,97811.53
2019-03-01T18:11:33.737Z,97815.13
2019-03-01T18:14:05.115Z,97820.59
2019-03-01T18:16:36.521Z,97820.52
2019-03-01T18:19:07.900Z,97822.23
2019-03-01T18:21:39.416Z,97821.34
2019-03-01T18:24:11.101Z,97824.67
2019-03-01T18:26:44.002Z,97817.61
2019-03-01T18:29:15.506Z,97816.62
2019-03-01T18:31:46.903Z,97810.16
2019-03-01T18:34:18.337Z,97816.17
2019-03-01T18:36:49.773Z,97823.00
2019-03-01T18:39:21.576Z,97827.23
2019-03-01T18:41:59.333Z,97828.82
2019-03-01T18:44:30.798Z,97825.53
2019-03-01T18:47:02.289Z,97824.28
2019-03-01T18:49:33.621Z,97828.92
2019-03-01T18:52:17.655Z,97829.16
2019-03-01T18:54:49.766Z,97820.59
2019-03-01T18:57:21.311Z,97814.02
2019-03-01T18:59:52.537Z,97818.77
2019-03-01T19:02:24.335Z,97810.04
2019-03-01T19:04:56.794Z,97805.76
2019-03-01T19:07:28.706Z,97811.41
2019-03-01T19:10:01.281Z,97805.16
2019-03-01T19:12:33.377Z,97811.47
2019-03-01T19:15:06.808Z,97815.85
2019-03-01T19:17:40.746Z,97817.25
2019-03-01T19:20:13.906Z,97826.73
2019-03-01T19:22:45.332Z,97827.02
2019-03-01T19:25:16.830Z,97826.06
2019-03-01T19:27:50.744Z,97832.67
2019-03-01T19:30:24.377Z,97831.50
2019-03-01T19:32:58.822Z,97835.30
2019-03-01T19:35:30.136Z,97834.94
2019-03-01T19:38:01.474Z,97838.96
2019-03-01T19:40:37.293Z,97840.03
2019-03-01T19:43:15.370Z,97846.28
2019-03-01T19:45:47.852Z,97841.92
2019-03-01T19:48:19.186Z,97837.02
2019-03-01T19:50:50.819Z,97841.47
2019-03-01T19:53:25.467Z,97840.73
2019-03-01T19:55:55.245Z,97840.72
2019-03-01T19:58:26.566Z,97845.95
2019-03-01T20:00:57.986Z,97842.42
2019-03-01T20:03:29.409Z,97840.28
2019-03-01T20:06:00.795Z,97843.94
2019-03-01T20:08:32.195Z,97844.55
2019-03-01T20:11:03.528Z,97840.59
2019-03-01T20:13:35.950Z,97846.97
2019-03-01T20:16:07.240Z,97852.36
2019-03-01T20:18:41.745Z,97852.87
2019-03-01T20:21:11.664Z,97852.03
2019-03-01T20:23:43.050Z,97854.50
2019-03-01T20:26:14.408Z,97854.73
2019-03-01T20:28:47.655Z,97862.41
2019-03-01T20:31:18.634Z,97859.17
2019-03-01T20:33:49.924Z,97857.20
2019-03-01T20:36:21.134Z,97862.09
2019-03-01T20:38:52.384Z,97860.34
2019-03-01T20:41:23.674Z,97864.69
2019-03-01T20:43:54.966Z,97869.52
2019-03-01T20:46:26.301Z,97871.21
2019-03-01T20:49:00.659Z,97878.67
2019-03-01T20:51:32.083Z,97882.11
2019-03-01T20:54:03.319Z,97879.39
2019-03-01T20:56:34.618Z,97887.30
2019-03-01T20:59:05.880Z,97889.44
2019-03-01T21:01:38.181Z,97885.27
2019-03-01T21:04:10.776Z,97881.58
2019-03-01T21:06:42.023Z,97893.85
2019-03-01T21:09:13.191Z,97891.47
2019-03-01T21:11:44.502Z,97896.55
2019-03-01T21:14:15.693Z,97900.41
2019-03-01T21:16:47.067Z,97896.94
2019-03-01T21:19:18.273Z,97901.48
2019-03-01T21:21:49.595Z,97898.47
2019-03-01T21:24:22.893Z,97897.66
2019-03-01T21:26:53.826Z,97905.73
2019-03-01T21:29:25.062Z,97897.37
2019-03-01T21:31:56.350Z,97896.48
2019-03-01T21:34:27.577Z,97891.16
2019-03-01T21:37:02.342Z,97903.11
2019-03-01T21:39:31.845Z,97902.46
2019-03-01T21:42:03.070Z,97903.67
2019-03-01T21:44:34.195Z,97903.84
2019-03-01T21:47:06.969Z,97905.91
2019-03-01T21:49:38.836Z,97910.16
2019-03-01T21:52:10.149Z,97907.09
2019-03-01T21:54:41.496Z,97904.98
2019-03-01T21:57:12.987Z,97916.73
2019-03-01T21:59:44.376Z,97911.16
2019-03-01T22:02:17.069Z,97918.25
2019-03-01T22:04:48.880Z,97918.73
2019-03-01T22:07:21.569Z,97917.84
2019-03-01T22:09:52.979Z,97920.08
2019-03-01T22:12:24.714Z,97923.25
2019-03-01T22:14:56.933Z,97928.03
2019-03-01T22:17:28.213Z,97935.00
2019-03-01T22:19:59.539Z,97936.71
2019-03-01T22:22:30.857Z,97933.70
2019-03-01T22:25:03.269Z,97931.21
2019-03-01T22:27:34.906Z,97928.92
2019-03-01T22:30:12.261Z,97925.16
2019-03-01T22:32:45.444Z,97931.70
2019-03-01T22:35:16.760Z,97930.25
2019-03-01T22:37:48.193Z,97927.08
2019-03-01T22:40:19.575Z,97931.62
2019-03-01T22:42:51.181Z,97930.53
2019-03-01T22:45:22.617Z,97924.19
2019-03-01T22:47:53.966Z,97927.23
2019-03-01T22:50:25.351Z,97923.75
2019-03-01T22:52:56.733Z,97934.55
2019-03-01T22:55:28.102Z,97932.81
2019-03-01T22:58:00.869Z,97929.02
2019-03-01T23:00:57.937Z,97936.92
2019-03-01T23:03:28.634Z,97941.17
2019-03-01T23:06:00.030Z,97943.83
2019-03-01T23:08:31.704Z,97934.38
2019-03-01T23:11:04.449Z,97940.38
2019-03-01T23:13:35.860Z,97939.54
2019-03-01T23:16:07.269Z,97940.38
2019-03-01T23:18:40.549Z,97935.83
2019-03-01T23:21:11.779Z,97947.28
2019-03-01T23:23:43.173Z,97942.97
2019-03-01T23:26:14.533Z,97938.48
2019-03-01T23:28:45.836Z,97932.25
2019-03-01T23:31:18.255Z,97939.54
2019-03-01T23:33:49.561Z,97942.57
2019-03-01T23:36:20.919Z,97939.38
2019-03-01T23:38:52.518Z,97945.88
2019-03-01T23:41:23.953Z,97949.17
2019-03-01T23:43:55.292Z,97953.91
2019-03-01T23:46:28.562Z,97950.45
2019-03-01T23:49:06.273Z,97957.72
2019-03-01T23:51:33.736Z,97953.52
2019-03-01T23:54:05.655Z,97949.73
2019-03-01T23:56:38.832Z,97948.23
2019-03-01T23:59:10.255Z,97950.61
